sensor_id;sensor_type;location;lat;lon;timestamp;P1;durP1;ratioP1;P2;durP2;ratioP2
3177;SDS011;38141;42.666;23.344;2024-01-07T00:02:08;11.83;;;8.73;;
3177;SDS011;38141;42.666;23.344;2024-01-07T00:04:35;14.73;;;9.37;;
3177;SDS011;38141;42.666;23.344;2024-01-07T00:07:02;16.50;;;11.47;;
3177;SDS011;38141;42.666;23.344;2024-01-07T00:09:30;23.17;;;15.20;;
3177;SDS011;38141;42.666;23.344;2024-01-07T00:11:57;23.97;;;15.07;;
3177;SDS011;38141;42.666;23.344;2024-01-07T00:14:25;23.97;;;15.10;;
3177;SDS011;38141;42.666;23.344;2024-01-07T00:16:52;29.00;;;16.87;;
3177;SDS011;38141;42.666;23.344;2024-01-07T00:19:19;25.97;;;16.33;;
3177;SDS011;38141;42.666;23.344;2024-01-07T00:21:46;30.63;;;17.30;;
3177;SDS011;38141;42.666;23.344;2024-01-07T00:24:13;28.77;;;17.00;;
3177;SDS011;38141;42.666;23.344;2024-01-07T00:26:40;29.00;;;18.47;;
3177;SDS011;38141;42.666;23.344;2024-01-07T00:29:07;32.03;;;19.37;;
3177;SDS011;38141;42.666;23.344;2024-01-07T00:31:35;56.50;;;34.77;;
3177;SDS011;38141;42.666;23.344;2024-01-07T00:34:02;31.40;;;20.03;;
3177;SDS011;38141;42.666;23.344;2024-01-07T00:36:29;29.27;;;17.80;;
3177;SDS011;38141;42.666;23.344;2024-01-07T00:38:56;29.23;;;17.97;;
3177;SDS011;38141;42.666;23.344;2024-01-07T00:41:23;29.73;;;17.73;;
3177;SDS011;38141;42.666;23.344;2024-01-07T00:43:50;32.87;;;20.07;;
3177;SDS011;38141;42.666;23.344;2024-01-07T00:46:17;30.40;;;19.50;;
3177;SDS011;38141;42.666;23.344;2024-01-07T00:48:46;35.70;;;19.57;;
3177;SDS011;38141;42.666;23.344;2024-01-07T00:51:13;31.20;;;20.43;;
3177;SDS011;38141;42.666;23.344;2024-01-07T00:53:40;31.87;;;20.63;;
3177;SDS011;38141;42.666;23.344;2024-01-07T00:56:07;46.53;;;27.70;;
3177;SDS011;38141;42.666;23.344;2024-01-07T00:58:34;37.43;;;22.00;;
3177;SDS011;38141;42.666;23.344;2024-01-07T01:01:02;35.53;;;21.40;;
3177;SDS011;38141;42.666;23.344;2024-01-07T01:03:30;32.90;;;19.13;;
3177;SDS011;38141;42.666;23.344;2024-01-07T01:05:58;32.20;;;19.23;;
3177;SDS011;38141;42.666;23.344;2024-01-07T01:08:25;30.60;;;19.27;;
3177;SDS011;38141;42.666;23.344;2024-01-07T01:10:52;33.87;;;19.87;;
3177;SDS011;38141;42.666;23.344;2024-01-07T01:13:19;36.53;;;21.30;;
3177;SDS011;38141;42.666;23.344;2024-01-07T01:15:46;33.10;;;20.97;;
3177;SDS011;38141;42.666;23.344;2024-01-07T01:18:13;33.33;;;21.30;;
3177;SDS011;38141;42.666;23.344;2024-01-07T01:20:40;31.10;;;20.03;;
3177;SDS011;38141;42.666;23.344;2024-01-07T01:23:08;32.40;;;19.30;;
3177;SDS011;38141;42.666;23.344;2024-01-07T01:25:35;29.03;;;19.63;;
3177;SDS011;38141;42.666;23.344;2024-01-07T01:28:04;31.00;;;20.23;;
3177;SDS011;38141;42.666;23.344;2024-01-07T01:30:31;32.80;;;20.60;;
3177;SDS011;38141;42.666;23.344;2024-01-07T01:32:58;34.13;;;20.50;;
3177;SDS011;38141;42.666;23.344;2024-01-07T01:35:25;31.70;;;20.47;;
3177;SDS011;38141;42.666;23.344;2024-01-07T01:37:52;37.47;;;21.70;;
3177;SDS011;38141;42.666;23.344;2024-01-07T01:40:21;35.80;;;22.70;;
3177;SDS011;38141;42.666;23.344;2024-01-07T01:42:48;35.63;;;21.40;;
3177;SDS011;38141;42.666;23.344;2024-01-07T01:45:15;34.80;;;22.10;;
3177;SDS011;38141;42.666;23.344;2024-01-07T01:47:42;36.07;;;22.50;;
3177;SDS011;38141;42.666;23.344;2024-01-07T01:50:09;30.13;;;19.77;;
3177;SDS011;38141;42.666;23.344;2024-01-07T01:52:38;16.90;;;11.87;;
3177;SDS011;38141;42.666;23.344;2024-01-07T01:55:05;21.53;;;12.87;;
3177;SDS011;38141;42.666;23.344;2024-01-07T01:57:34;17.60;;;10.20;;
3177;SDS011;38141;42.666;23.344;2024-01-07T02:00:06;15.13;;;9.93;;
3177;SDS011;38141;42.666;23.344;2024-01-07T02:02:34;26.57;;;16.97;;
3177;SDS011;38141;42.666;23.344;2024-01-07T02:05:01;25.50;;;15.00;;
3177;SDS011;38141;42.666;23.344;2024-01-07T02:07:28;25.03;;;14.07;;
3177;SDS011;38141;42.666;23.344;2024-01-07T02:09:56;22.50;;;15.27;;
3177;SDS011;38141;42.666;23.344;2024-01-07T02:12:23;17.77;;;11.30;;
3177;SDS011;38141;42.666;23.344;2024-01-07T02:14:52;24.47;;;15.00;;
3177;SDS011;38141;42.666;23.344;2024-01-07T02:17:19;26.80;;;16.47;;
3177;SDS011;38141;42.666;23.344;2024-01-07T02:19:46;23.70;;;15.37;;
3177;SDS011;38141;42.666;23.344;2024-01-07T02:22:13;17.13;;;10.47;;
3177;SDS011;38141;42.666;23.344;2024-01-07T02:24:41;17.03;;;11.20;;
3177;SDS011;38141;42.666;23.344;2024-01-07T02:27:08;14.70;;;9.23;;
3177;SDS011;38141;42.666;23.344;2024-01-07T02:29:34;14.73;;;9.10;;
3177;SDS011;38141;42.666;23.344;2024-01-07T02:32:01;14.00;;;8.23;;
3177;SDS011;38141;42.666;23.344;2024-01-07T02:34:29;11.10;;;6.37;;
3177;SDS011;38141;42.666;23.344;2024-01-07T02:36:56;12.40;;;7.87;;
3177;SDS011;38141;42.666;23.344;2024-01-07T02:39:23;16.30;;;9.10;;
3177;SDS011;38141;42.666;23.344;2024-01-07T02:41:51;15.00;;;9.20;;
3177;SDS011;38141;42.666;23.344;2024-01-07T02:44:18;12.33;;;7.30;;
3177;SDS011;38141;42.666;23.344;2024-01-07T02:46:45;17.70;;;12.07;;
3177;SDS011;38141;42.666;23.344;2024-01-07T02:49:12;20.77;;;12.90;;
3177;SDS011;38141;42.666;23.344;2024-01-07T02:51:39;15.27;;;10.90;;
3177;SDS011;38141;42.666;23.344;2024-01-07T02:54:06;17.93;;;10.60;;
3177;SDS011;38141;42.666;23.344;2024-01-07T02:56:33;14.80;;;9.83;;
3177;SDS011;38141;42.666;23.344;2024-01-07T02:59:01;12.30;;;8.43;;
3177;SDS011;38141;42.666;23.344;2024-01-07T03:01:28;12.70;;;9.00;;
3177;SDS011;38141;42.666;23.344;2024-01-07T03:03:55;14.40;;;9.40;;
3177;SDS011;38141;42.666;23.344;2024-01-07T03:06:25;10.40;;;7.20;;
3177;SDS011;38141;42.666;23.344;2024-01-07T03:08:53;9.00;;;6.60;;
3177;SDS011;38141;42.666;23.344;2024-01-07T03:11:20;9.57;;;5.87;;
3177;SDS011;38141;42.666;23.344;2024-01-07T03:13:47;10.47;;;5.93;;
3177;SDS011;38141;42.666;23.344;2024-01-07T03:16:25;6.80;;;5.20;;
3177;SDS011;38141;42.666;23.344;2024-01-07T03:18:52;8.40;;;4.90;;
3177;SDS011;38141;42.666;23.344;2024-01-07T03:21:20;8.50;;;5.10;;
3177;SDS011;38141;42.666;23.344;2024-01-07T03:23:49;8.50;;;5.23;;
3177;SDS011;38141;42.666;23.344;2024-01-07T03:26:17;8.17;;;5.50;;
3177;SDS011;38141;42.666;23.344;2024-01-07T03:28:44;7.20;;;5.23;;
3177;SDS011;38141;42.666;23.344;2024-01-07T03:31:12;8.83;;;5.40;;
3177;SDS011;38141;42.666;23.344;2024-01-07T03:33:42;6.70;;;4.90;;
3177;SDS011;38141;42.666;23.344;2024-01-07T03:36:09;8.43;;;5.40;;
3177;SDS011;38141;42.666;23.344;2024-01-07T03:38:37;7.30;;;5.43;;
3177;SDS011;38141;42.666;23.344;2024-01-07T03:41:05;13.37;;;9.17;;
3177;SDS011;38141;42.666;23.344;2024-01-07T03:43:33;17.23;;;10.93;;
3177;SDS011;38141;42.666;23.344;2024-01-07T03:46:00;16.10;;;10.60;;
3177;SDS011;38141;42.666;23.344;2024-01-07T03:48:27;16.67;;;10.87;;
3177;SDS011;38141;42.666;23.344;2024-01-07T03:50:55;12.50;;;10.10;;
3177;SDS011;38141;42.666;23.344;2024-01-07T03:53:22;14.37;;;10.00;;
3177;SDS011;38141;42.666;23.344;2024-01-07T03:55:50;15.40;;;11.40;;
3177;SDS011;38141;42.666;23.344;2024-01-07T03:58:16;15.53;;;11.47;;
3177;SDS011;38141;42.666;23.344;2024-01-07T04:00:44;16.87;;;11.30;;
3177;SDS011;38141;42.666;23.344;2024-01-07T04:03:10;17.20;;;12.40;;
3177;SDS011;38141;42.666;23.344;2024-01-07T04:05:37;19.57;;;12.33;;
3177;SDS011;38141;42.666;23.344;2024-01-07T04:08:08;16.50;;;10.67;;
3177;SDS011;38141;42.666;23.344;2024-01-07T04:10:36;15.97;;;11.20;;
3177;SDS011;38141;42.666;23.344;2024-01-07T04:13:03;20.07;;;11.60;;
3177;SDS011;38141;42.666;23.344;2024-01-07T04:15:30;14.83;;;10.37;;
3177;SDS011;38141;42.666;23.344;2024-01-07T04:17:57;19.43;;;10.13;;
3177;SDS011;38141;42.666;23.344;2024-01-07T04:20:27;16.40;;;10.30;;
3177;SDS011;38141;42.666;23.344;2024-01-07T04:22:54;15.20;;;10.50;;
3177;SDS011;38141;42.666;23.344;2024-01-07T04:25:23;15.20;;;9.20;;
3177;SDS011;38141;42.666;23.344;2024-01-07T04:27:50;17.97;;;10.93;;
3177;SDS011;38141;42.666;23.344;2024-01-07T04:30:17;15.13;;;9.20;;
3177;SDS011;38141;42.666;23.344;2024-01-07T04:32:44;15.90;;;9.70;;
3177;SDS011;38141;42.666;23.344;2024-01-07T04:35:11;14.40;;;9.30;;
3177;SDS011;38141;42.666;23.344;2024-01-07T04:37:38;14.50;;;9.30;;
3177;SDS011;38141;42.666;23.344;2024-01-07T04:40:06;14.17;;;8.63;;
3177;SDS011;38141;42.666;23.344;2024-01-07T04:42:35;14.20;;;9.57;;
3177;SDS011;38141;42.666;23.344;2024-01-07T04:45:02;13.20;;;9.10;;
3177;SDS011;38141;42.666;23.344;2024-01-07T04:47:30;14.10;;;8.83;;
3177;SDS011;38141;42.666;23.344;2024-01-07T04:49:59;12.40;;;9.20;;
3177;SDS011;38141;42.666;23.344;2024-01-07T04:52:26;16.77;;;8.80;;
3177;SDS011;38141;42.666;23.344;2024-01-07T04:54:53;18.17;;;9.67;;
3177;SDS011;38141;42.666;23.344;2024-01-07T04:57:21;11.33;;;8.70;;
3177;SDS011;38141;42.666;23.344;2024-01-07T04:59:50;13.50;;;9.00;;
3177;SDS011;38141;42.666;23.344;2024-01-07T05:02:17;16.70;;;10.50;;
3177;SDS011;38141;42.666;23.344;2024-01-07T05:04:45;16.07;;;10.00;;
3177;SDS011;38141;42.666;23.344;2024-01-07T05:07:12;12.60;;;9.60;;
3177;SDS011;38141;42.666;23.344;2024-01-07T05:09:39;12.90;;;8.93;;
3177;SDS011;38141;42.666;23.344;2024-01-07T05:12:07;15.40;;;9.47;;
3177;SDS011;38141;42.666;23.344;2024-01-07T05:14:34;14.00;;;9.53;;
3177;SDS011;38141;42.666;23.344;2024-01-07T05:17:03;15.03;;;9.57;;
3177;SDS011;38141;42.666;23.344;2024-01-07T05:19:30;13.23;;;9.30;;
3177;SDS011;38141;42.666;23.344;2024-01-07T05:21:58;12.50;;;9.10;;
3177;SDS011;38141;42.666;23.344;2024-01-07T05:24:25;15.90;;;9.80;;
3177;SDS011;38141;42.666;23.344;2024-01-07T05:26:52;15.70;;;10.97;;
3177;SDS011;38141;42.666;23.344;2024-01-07T05:29:19;11.87;;;9.13;;
3177;SDS011;38141;42.666;23.344;2024-01-07T05:31:47;13.60;;;9.00;;
3177;SDS011;38141;42.666;23.344;2024-01-07T05:34:15;13.07;;;9.53;;
3177;SDS011;38141;42.666;23.344;2024-01-07T05:36:42;14.17;;;9.83;;
3177;SDS011;38141;42.666;23.344;2024-01-07T05:39:09;16.33;;;11.00;;
3177;SDS011;38141;42.666;23.344;2024-01-07T05:41:36;16.53;;;10.63;;
3177;SDS011;38141;42.666;23.344;2024-01-07T05:44:06;15.73;;;10.20;;
3177;SDS011;38141;42.666;23.344;2024-01-07T05:46:33;15.77;;;10.00;;
3177;SDS011;38141;42.666;23.344;2024-01-07T05:49:00;15.77;;;10.50;;
3177;SDS011;38141;42.666;23.344;2024-01-07T05:51:29;19.27;;;10.80;;
3177;SDS011;38141;42.666;23.344;2024-01-07T05:53:56;19.40;;;11.80;;
3177;SDS011;38141;42.666;23.344;2024-01-07T05:56:23;16.50;;;10.43;;
3177;SDS011;38141;42.666;23.344;2024-01-07T06:00:52;14.60;;;10.27;;
3177;SDS011;38141;42.666;23.344;2024-01-07T06:03:20;14.20;;;9.60;;
3177;SDS011;38141;42.666;23.344;2024-01-07T06:05:47;14.50;;;10.00;;
3177;SDS011;38141;42.666;23.344;2024-01-07T06:08:14;16.03;;;10.77;;
3177;SDS011;38141;42.666;23.344;2024-01-07T06:10:41;16.00;;;10.50;;
3177;SDS011;38141;42.666;23.344;2024-01-07T06:13:09;15.23;;;10.07;;
3177;SDS011;38141;42.666;23.344;2024-01-07T06:15:36;15.27;;;9.63;;
3177;SDS011;38141;42.666;23.344;2024-01-07T06:18:05;15.83;;;10.30;;
3177;SDS011;38141;42.666;23.344;2024-01-07T06:20:32;17.87;;;10.67;;
3177;SDS011;38141;42.666;23.344;2024-01-07T06:22:59;16.13;;;10.37;;
3177;SDS011;38141;42.666;23.344;2024-01-07T06:25:26;14.43;;;10.87;;
3177;SDS011;38141;42.666;23.344;2024-01-07T06:27:53;18.70;;;12.17;;
3177;SDS011;38141;42.666;23.344;2024-01-07T06:30:20;19.00;;;11.80;;
3177;SDS011;38141;42.666;23.344;2024-01-07T06:32:47;17.60;;;12.27;;
3177;SDS011;38141;42.666;23.344;2024-01-07T06:35:16;19.27;;;12.50;;
3177;SDS011;38141;42.666;23.344;2024-01-07T06:37:43;21.37;;;12.13;;
3177;SDS011;38141;42.666;23.344;2024-01-07T06:40:10;22.43;;;14.70;;
3177;SDS011;38141;42.666;23.344;2024-01-07T06:42:38;18.57;;;12.53;;
3177;SDS011;38141;42.666;23.344;2024-01-07T06:45:06;17.90;;;12.73;;
3177;SDS011;38141;42.666;23.344;2024-01-07T06:47:34;20.27;;;12.87;;
3177;SDS011;38141;42.666;23.344;2024-01-07T06:50:01;22.47;;;13.17;;
3177;SDS011;38141;42.666;23.344;2024-01-07T06:52:30;19.23;;;13.43;;
3177;SDS011;38141;42.666;23.344;2024-01-07T06:54:57;22.77;;;14.37;;
3177;SDS011;38141;42.666;23.344;2024-01-07T06:57:24;18.27;;;12.43;;
3177;SDS011;38141;42.666;23.344;2024-01-07T06:59:51;21.60;;;14.57;;
3177;SDS011;38141;42.666;23.344;2024-01-07T07:02:19;20.57;;;13.43;;
3177;SDS011;38141;42.666;23.344;2024-01-07T07:04:46;21.23;;;12.20;;
3177;SDS011;38141;42.666;23.344;2024-01-07T07:07:16;18.50;;;13.30;;
3177;SDS011;38141;42.666;23.344;2024-01-07T07:09:45;20.93;;;13.40;;
3177;SDS011;38141;42.666;23.344;2024-01-07T07:12:12;18.90;;;11.17;;
3177;SDS011;38141;42.666;23.344;2024-01-07T07:14:39;17.60;;;12.27;;
3177;SDS011;38141;42.666;23.344;2024-01-07T07:17:06;19.30;;;12.77;;
3177;SDS011;38141;42.666;23.344;2024-01-07T07:19:33;19.30;;;12.37;;
3177;SDS011;38141;42.666;23.344;2024-01-07T07:22:00;22.23;;;13.63;;
3177;SDS011;38141;42.666;23.344;2024-01-07T07:24:27;16.90;;;11.57;;
3177;SDS011;38141;42.666;23.344;2024-01-07T07:26:56;17.20;;;11.03;;
3177;SDS011;38141;42.666;23.344;2024-01-07T07:29:23;14.23;;;11.07;;
3177;SDS011;38141;42.666;23.344;2024-01-07T07:31:50;15.53;;;11.10;;
3177;SDS011;38141;42.666;23.344;2024-01-07T07:34:17;18.50;;;10.80;;
3177;SDS011;38141;42.666;23.344;2024-01-07T07:36:44;14.80;;;10.50;;
3177;SDS011;38141;42.666;23.344;2024-01-07T07:39:11;15.50;;;10.80;;
3177;SDS011;38141;42.666;23.344;2024-01-07T07:41:39;16.60;;;10.90;;
3177;SDS011;38141;42.666;23.344;2024-01-07T07:44:08;19.67;;;11.27;;
3177;SDS011;38141;42.666;23.344;2024-01-07T07:46:35;15.67;;;10.90;;
3177;SDS011;38141;42.666;23.344;2024-01-07T07:49:02;20.13;;;12.33;;
3177;SDS011;38141;42.666;23.344;2024-01-07T07:51:29;20.93;;;12.00;;
3177;SDS011;38141;42.666;23.344;2024-01-07T07:53:56;15.73;;;10.53;;
3177;SDS011;38141;42.666;23.344;2024-01-07T07:56:23;15.17;;;10.33;;
3177;SDS011;38141;42.666;23.344;2024-01-07T07:58:50;16.60;;;10.07;;
3177;SDS011;38141;42.666;23.344;2024-01-07T08:01:19;14.50;;;9.80;;
3177;SDS011;38141;42.666;23.344;2024-01-07T08:03:46;12.40;;;9.00;;
3177;SDS011;38141;42.666;23.344;2024-01-07T08:06:13;12.40;;;8.33;;
3177;SDS011;38141;42.666;23.344;2024-01-07T08:08:40;16.00;;;10.00;;
3177;SDS011;38141;42.666;23.344;2024-01-07T08:11:07;16.13;;;10.07;;
3177;SDS011;38141;42.666;23.344;2024-01-07T08:13:35;16.20;;;9.33;;
3177;SDS011;38141;42.666;23.344;2024-01-07T08:16:03;13.43;;;9.10;;
3177;SDS011;38141;42.666;23.344;2024-01-07T08:18:32;14.43;;;8.40;;
3177;SDS011;38141;42.666;23.344;2024-01-07T08:20:59;17.13;;;8.77;;
3177;SDS011;38141;42.666;23.344;2024-01-07T08:23:26;14.13;;;8.47;;
3177;SDS011;38141;42.666;23.344;2024-01-07T08:25:53;13.20;;;10.03;;
3177;SDS011;38141;42.666;23.344;2024-01-07T08:28:21;12.30;;;8.27;;
3177;SDS011;38141;42.666;23.344;2024-01-07T08:30:47;22.30;;;17.07;;
3177;SDS011;38141;42.666;23.344;2024-01-07T08:33:16;15.47;;;9.33;;
3177;SDS011;38141;42.666;23.344;2024-01-07T08:35:45;16.10;;;9.93;;
3177;SDS011;38141;42.666;23.344;2024-01-07T08:38:13;16.70;;;11.10;;
3177;SDS011;38141;42.666;23.344;2024-01-07T08:40:40;29.00;;;18.73;;
3177;SDS011;38141;42.666;23.344;2024-01-07T08:43:07;15.63;;;11.50;;
3177;SDS011;38141;42.666;23.344;2024-01-07T08:45:37;30.47;;;20.20;;
3177;SDS011;38141;42.666;23.344;2024-01-07T08:48:04;27.20;;;17.90;;
3177;SDS011;38141;42.666;23.344;2024-01-07T08:50:31;18.57;;;13.40;;
3177;SDS011;38141;42.666;23.344;2024-01-07T08:53:00;23.53;;;15.20;;
3177;SDS011;38141;42.666;23.344;2024-01-07T08:55:27;28.27;;;15.30;;
3177;SDS011;38141;42.666;23.344;2024-01-07T08:57:54;25.33;;;16.90;;
3177;SDS011;38141;42.666;23.344;2024-01-07T09:00:21;22.43;;;15.03;;
3177;SDS011;38141;42.666;23.344;2024-01-07T09:02:51;22.50;;;14.77;;
3177;SDS011;38141;42.666;23.344;2024-01-07T09:05:18;20.30;;;14.40;;
3177;SDS011;38141;42.666;23.344;2024-01-07T09:07:45;18.60;;;13.17;;
3177;SDS011;38141;42.666;23.344;2024-01-07T09:10:13;17.80;;;12.97;;
3177;SDS011;38141;42.666;23.344;2024-01-07T09:12:40;19.27;;;12.80;;
3177;SDS011;38141;42.666;23.344;2024-01-07T09:15:07;16.20;;;11.47;;
3177;SDS011;38141;42.666;23.344;2024-01-07T09:17:35;17.00;;;12.30;;
3177;SDS011;38141;42.666;23.344;2024-01-07T09:20:03;17.97;;;12.53;;
3177;SDS011;38141;42.666;23.344;2024-01-07T09:22:32;12.93;;;10.50;;
3177;SDS011;38141;42.666;23.344;2024-01-07T09:24:59;11.53;;;9.40;;
3177;SDS011;38141;42.666;23.344;2024-01-07T09:27:30;13.37;;;9.07;;
3177;SDS011;38141;42.666;23.344;2024-01-07T09:29:57;10.00;;;8.20;;
3177;SDS011;38141;42.666;23.344;2024-01-07T09:32:24;12.60;;;9.47;;
3177;SDS011;38141;42.666;23.344;2024-01-07T09:34:51;10.20;;;8.53;;
3177;SDS011;38141;42.666;23.344;2024-01-07T09:37:18;12.57;;;8.90;;
3177;SDS011;38141;42.666;23.344;2024-01-07T09:39:46;10.73;;;7.63;;
3177;SDS011;38141;42.666;23.344;2024-01-07T09:42:13;21.77;;;15.87;;
3177;SDS011;38141;42.666;23.344;2024-01-07T09:44:42;9.67;;;7.60;;
3177;SDS011;38141;42.666;23.344;2024-01-07T09:47:11;8.10;;;7.30;;
3177;SDS011;38141;42.666;23.344;2024-01-07T09:49:39;11.17;;;7.70;;
3177;SDS011;38141;42.666;23.344;2024-01-07T09:52:07;11.07;;;6.97;;
3177;SDS011;38141;42.666;23.344;2024-01-07T09:54:35;11.97;;;9.20;;
3177;SDS011;38141;42.666;23.344;2024-01-07T09:57:04;10.80;;;7.30;;
3177;SDS011;38141;42.666;23.344;2024-01-07T09:59:32;7.97;;;6.03;;
3177;SDS011;38141;42.666;23.344;2024-01-07T10:02:01;7.97;;;6.40;;
3177;SDS011;38141;42.666;23.344;2024-01-07T10:04:29;9.47;;;5.33;;
3177;SDS011;38141;42.666;23.344;2024-01-07T10:06:56;8.33;;;5.90;;
3177;SDS011;38141;42.666;23.344;2024-01-07T10:09:22;9.30;;;7.23;;
3177;SDS011;38141;42.666;23.344;2024-01-07T10:11:51;11.83;;;8.27;;
3177;SDS011;38141;42.666;23.344;2024-01-07T10:14:18;10.40;;;7.50;;
3177;SDS011;38141;42.666;23.344;2024-01-07T10:16:47;12.50;;;8.77;;
3177;SDS011;38141;42.666;23.344;2024-01-07T10:19:19;14.33;;;9.40;;
3177;SDS011;38141;42.666;23.344;2024-01-07T10:21:48;11.40;;;8.40;;
3177;SDS011;38141;42.666;23.344;2024-01-07T10:24:26;10.90;;;7.37;;
3177;SDS011;38141;42.666;23.344;2024-01-07T10:26:53;9.30;;;6.97;;
3177;SDS011;38141;42.666;23.344;2024-01-07T10:29:21;11.67;;;7.50;;
3177;SDS011;38141;42.666;23.344;2024-01-07T10:31:49;10.77;;;6.70;;
3177;SDS011;38141;42.666;23.344;2024-01-07T10:34:16;8.90;;;6.50;;
3177;SDS011;38141;42.666;23.344;2024-01-07T10:36:46;9.17;;;6.40;;
3177;SDS011;38141;42.666;23.344;2024-01-07T10:39:14;9.40;;;6.73;;
3177;SDS011;38141;42.666;23.344;2024-01-07T10:41:41;10.60;;;6.60;;
3177;SDS011;38141;42.666;23.344;2024-01-07T10:44:11;14.83;;;8.43;;
3177;SDS011;38141;42.666;23.344;2024-01-07T10:46:38;13.87;;;9.90;;
3177;SDS011;38141;42.666;23.344;2024-01-07T10:49:12;15.97;;;10.83;;
3177;SDS011;38141;42.666;23.344;2024-01-07T10:51:47;15.80;;;10.50;;
3177;SDS011;38141;42.666;23.344;2024-01-07T10:54:20;13.60;;;9.47;;
3177;SDS011;38141;42.666;23.344;2024-01-07T10:56:50;13.27;;;8.97;;
3177;SDS011;38141;42.666;23.344;2024-01-07T10:59:24;10.30;;;8.00;;
3177;SDS011;38141;42.666;23.344;2024-01-07T11:01:55;14.27;;;10.20;;
3177;SDS011;38141;42.666;23.344;2024-01-07T11:04:25;15.50;;;10.90;;
3177;SDS011;38141;42.666;23.344;2024-01-07T11:06:59;11.53;;;9.37;;
3177;SDS011;38141;42.666;23.344;2024-01-07T11:09:36;10.40;;;7.77;;
3177;SDS011;38141;42.666;23.344;2024-01-07T11:12:08;12.00;;;8.00;;
3177;SDS011;38141;42.666;23.344;2024-01-07T11:14:35;16.40;;;9.07;;
3177;SDS011;38141;42.666;23.344;2024-01-07T11:17:02;9.00;;;6.93;;
3177;SDS011;38141;42.666;23.344;2024-01-07T11:19:30;9.60;;;5.80;;
3177;SDS011;38141;42.666;23.344;2024-01-07T11:24:53;6.83;;;4.63;;
3177;SDS011;38141;42.666;23.344;2024-01-07T11:27:21;13.60;;;8.73;;
3177;SDS011;38141;42.666;23.344;2024-01-07T11:29:53;8.53;;;5.50;;
3177;SDS011;38141;42.666;23.344;2024-01-07T11:32:21;6.70;;;4.30;;
3177;SDS011;38141;42.666;23.344;2024-01-07T11:34:51;6.37;;;4.87;;
3177;SDS011;38141;42.666;23.344;2024-01-07T11:37:19;7.93;;;4.87;;
3177;SDS011;38141;42.666;23.344;2024-01-07T11:39:50;8.07;;;5.53;;
3177;SDS011;38141;42.666;23.344;2024-01-07T11:42:18;5.63;;;4.80;;
3177;SDS011;38141;42.666;23.344;2024-01-07T11:44:45;7.00;;;4.43;;
3177;SDS011;38141;42.666;23.344;2024-01-07T11:47:13;6.53;;;5.57;;
3177;SDS011;38141;42.666;23.344;2024-01-07T11:49:41;5.83;;;4.80;;
3177;SDS011;38141;42.666;23.344;2024-01-07T11:52:08;5.07;;;4.40;;
3177;SDS011;38141;42.666;23.344;2024-01-07T11:54:35;5.83;;;4.10;;
3177;SDS011;38141;42.666;23.344;2024-01-07T11:57:05;7.53;;;4.90;;
3177;SDS011;38141;42.666;23.344;2024-01-07T11:59:32;9.70;;;5.13;;
3177;SDS011;38141;42.666;23.344;2024-01-07T12:02:01;8.83;;;6.60;;
3177;SDS011;38141;42.666;23.344;2024-01-07T12:04:30;6.60;;;4.73;;
3177;SDS011;38141;42.666;23.344;2024-01-07T12:06:58;8.93;;;5.40;;
3177;SDS011;38141;42.666;23.344;2024-01-07T12:09:25;10.70;;;6.03;;
3177;SDS011;38141;42.666;23.344;2024-01-07T12:11:52;12.03;;;7.00;;
3177;SDS011;38141;42.666;23.344;2024-01-07T12:14:21;12.40;;;7.10;;
3177;SDS011;38141;42.666;23.344;2024-01-07T12:16:48;7.27;;;6.00;;
3177;SDS011;38141;42.666;23.344;2024-01-07T12:19:15;11.23;;;7.40;;
3177;SDS011;38141;42.666;23.344;2024-01-07T12:21:42;9.97;;;6.07;;
3177;SDS011;38141;42.666;23.344;2024-01-07T12:24:09;10.03;;;5.67;;
3177;SDS011;38141;42.666;23.344;2024-01-07T12:26:36;8.07;;;5.70;;
3177;SDS011;38141;42.666;23.344;2024-01-07T12:29:03;11.10;;;8.20;;
3177;SDS011;38141;42.666;23.344;2024-01-07T12:31:33;9.30;;;6.57;;
3177;SDS011;38141;42.666;23.344;2024-01-07T12:34:01;12.07;;;7.33;;
3177;SDS011;38141;42.666;23.344;2024-01-07T12:36:29;10.93;;;7.27;;
3177;SDS011;38141;42.666;23.344;2024-01-07T12:38:57;10.70;;;7.77;;
3177;SDS011;38141;42.666;23.344;2024-01-07T12:41:24;11.60;;;8.33;;
3177;SDS011;38141;42.666;23.344;2024-01-07T12:43:51;16.27;;;9.50;;
3177;SDS011;38141;42.666;23.344;2024-01-07T12:46:18;17.80;;;9.67;;
3177;SDS011;38141;42.666;23.344;2024-01-07T12:48:47;14.50;;;7.00;;
3177;SDS011;38141;42.666;23.344;2024-01-07T12:51:14;13.30;;;7.10;;
3177;SDS011;38141;42.666;23.344;2024-01-07T12:53:42;12.10;;;7.03;;
3177;SDS011;38141;42.666;23.344;2024-01-07T12:56:10;10.30;;;6.63;;
3177;SDS011;38141;42.666;23.344;2024-01-07T12:58:38;9.13;;;6.00;;
3177;SDS011;38141;42.666;23.344;2024-01-07T13:01:05;13.03;;;6.53;;
3177;SDS011;38141;42.666;23.344;2024-01-07T13:03:32;7.90;;;5.90;;
3177;SDS011;38141;42.666;23.344;2024-01-07T13:06:01;8.47;;;5.60;;
3177;SDS011;38141;42.666;23.344;2024-01-07T13:08:28;13.00;;;6.43;;
3177;SDS011;38141;42.666;23.344;2024-01-07T13:10:55;9.70;;;6.30;;
3177;SDS011;38141;42.666;23.344;2024-01-07T13:13:23;10.87;;;6.20;;
3177;SDS011;38141;42.666;23.344;2024-01-07T13:15:50;20.70;;;7.00;;
3177;SDS011;38141;42.666;23.344;2024-01-07T13:18:17;11.90;;;6.97;;
3177;SDS011;38141;42.666;23.344;2024-01-07T13:20:45;8.30;;;6.30;;
3177;SDS011;38141;42.666;23.344;2024-01-07T13:23:14;14.13;;;7.10;;
3177;SDS011;38141;42.666;23.344;2024-01-07T13:25:41;10.83;;;6.90;;
3177;SDS011;38141;42.666;23.344;2024-01-07T13:28:08;13.00;;;6.70;;
3177;SDS011;38141;42.666;23.344;2024-01-07T13:30:36;9.87;;;6.03;;
3177;SDS011;38141;42.666;23.344;2024-01-07T13:33:05;10.07;;;6.90;;
3177;SDS011;38141;42.666;23.344;2024-01-07T13:35:33;9.93;;;7.70;;
3177;SDS011;38141;42.666;23.344;2024-01-07T13:38:00;15.77;;;9.00;;
3177;SDS011;38141;42.666;23.344;2024-01-07T13:40:29;10.50;;;7.53;;
3177;SDS011;38141;42.666;23.344;2024-01-07T13:42:56;13.10;;;7.90;;
3177;SDS011;38141;42.666;23.344;2024-01-07T13:45:23;12.40;;;7.27;;
3177;SDS011;38141;42.666;23.344;2024-01-07T13:47:50;13.03;;;7.50;;
3177;SDS011;38141;42.666;23.344;2024-01-07T13:50:17;10.37;;;7.30;;
3177;SDS011;38141;42.666;23.344;2024-01-07T13:52:44;12.27;;;7.77;;
3177;SDS011;38141;42.666;23.344;2024-01-07T13:55:11;10.07;;;7.00;;
3177;SDS011;38141;42.666;23.344;2024-01-07T13:57:40;9.80;;;7.90;;
3177;SDS011;38141;42.666;23.344;2024-01-07T14:00:08;9.70;;;7.60;;
3177;SDS011;38141;42.666;23.344;2024-01-07T14:02:36;42.17;;;23.73;;
3177;SDS011;38141;42.666;23.344;2024-01-07T14:05:04;11.87;;;8.60;;
3177;SDS011;38141;42.666;23.344;2024-01-07T14:07:34;11.63;;;7.70;;
3177;SDS011;38141;42.666;23.344;2024-01-07T14:10:01;11.30;;;8.07;;
3177;SDS011;38141;42.666;23.344;2024-01-07T14:12:29;13.20;;;7.73;;
3177;SDS011;38141;42.666;23.344;2024-01-07T14:14:58;11.97;;;7.43;;
3177;SDS011;38141;42.666;23.344;2024-01-07T14:17:25;10.27;;;7.80;;
3177;SDS011;38141;42.666;23.344;2024-01-07T14:19:52;11.93;;;6.73;;
3177;SDS011;38141;42.666;23.344;2024-01-07T14:22:19;10.20;;;6.77;;
3177;SDS011;38141;42.666;23.344;2024-01-07T14:24:47;16.00;;;8.10;;
3177;SDS011;38141;42.666;23.344;2024-01-07T14:27:14;17.63;;;8.00;;
3177;SDS011;38141;42.666;23.344;2024-01-07T14:29:43;13.77;;;7.83;;
3177;SDS011;38141;42.666;23.344;2024-01-07T14:32:12;13.23;;;7.63;;
3177;SDS011;38141;42.666;23.344;2024-01-07T14:34:39;10.83;;;7.70;;
3177;SDS011;38141;42.666;23.344;2024-01-07T14:37:07;13.50;;;7.73;;
3177;SDS011;38141;42.666;23.344;2024-01-07T14:39:35;10.90;;;6.90;;